Time;durP1;ratioP1;P1;durP2;ratioP2;P2;SDS_P1;SDS_P2;PMS_P1;PMS_P2;Temp;Humidity;BMP_temperature;BMP_pressure;BME280_temperature;BME280_humidity;BME280_pressure;Samples;Min_cycle;Max_cycle;Signal;HPM_P1;HPM_P2
2022/01/19 00:01:51;;;;;;;10.70;3.73;;;;;;;-1.62;100.00;60640.59;5072145;28;20439;-74
2022/01/19 00:04:18;;;;;;;9.87;3.80;;;;;;;-3.28;100.00;60471.25;5071991;28;20499;-75
2022/01/19 00:06:48;;;;;;;12.47;4.30;;;;;;;-2.78;100.00;60519.06;5071692;28;20504;-77
2022/01/19 00:09:26;;;;;;;10.07;4.00;;;;;;;-1.73;100.00;60628.97;5071610;28;20435;-75
2022/01/19 00:11:55;;;;;;;10.33;4.43;;;;;;;-2.81;100.00;60515.88;5071899;28;20563;-75
2022/01/19 00:14:29;;;;;;;15.13;4.10;;;;;;;-2.27;100.00;60567.41;5071921;28;20478;-75
2022/01/19 00:17:04;;;;;;;10.97;4.30;;;;;;;-1.48;100.00;60647.91;5071805;28;20529;-74
2022/01/19 00:19:35;;;;;;;11.30;4.00;;;;;;;-3.10;100.00;60489.72;5070542;28;20446;-74
2022/01/19 00:22:29;;;;;;;8.83;4.33;;;;;;;-1.49;100.00;60654.34;5071657;28;20462;-75
2022/01/19 00:25:00;;;;;;;7.97;3.70;;;;;;;-1.67;100.00;60634.78;5071901;28;20427;-74
2022/01/19 00:27:27;;;;;;;11.23;4.40;;;;;;;-1.68;100.00;60633.72;5071629;28;20454;-76
2022/01/19 00:29:56;;;;;;;7.47;3.80;;;;;;;-3.08;100.00;60486.84;5071808;28;20450;-72
2022/01/19 00:32:27;;;;;;;8.03;3.17;;;;;;;-1.69;100.00;60633.19;5075741;28;20943;-75
2022/01/19 00:35:03;;;;;;;11.27;3.70;;;;;;;-1.63;100.00;60639.00;5075447;28;20485;-76
2022/01/19 00:37:34;;;;;;;9.20;3.80;;;;;;;-2.99;100.00;60496.34;5075853;28;20488;-76
2022/01/19 00:40:04;;;;;;;9.60;3.60;;;;;;;-1.63;100.00;60639.00;5075151;28;20451;-76
2022/01/19 00:42:32;;;;;;;7.93;3.90;;;;;;;-1.59;100.00;60643.25;5075530;28;20480;-76
2022/01/19 00:45:03;;;;;;;7.50;3.87;;;;;;;-1.86;100.00;60615.75;5074458;28;20443;-77
2022/01/19 00:47:39;;;;;;;8.20;3.33;;;;;;;-3.37;100.00;60456.75;5075640;28;20453;-74
2022/01/19 00:50:09;;;;;;;10.53;3.30;;;;;;;-1.61;100.00;60646.66;5075482;28;20453;-76
2022/01/19 00:52:36;;;;;;;6.70;3.50;;;;;;;-1.61;100.00;60636.13;5075358;28;20891;-76
2022/01/19 00:55:06;;;;;;;10.90;3.90;;;;;;;-1.69;100.00;60633.19;5078515;28;20512;-75
2022/01/19 00:57:33;;;;;;;6.80;3.17;;;;;;;-1.64;100.00;60635.97;5083607;28;20438;-74
2022/01/19 01:00:02;;;;;;;10.97;4.00;;;;;;;-1.93;100.00;60607.81;5075950;28;20451;-75
2022/01/19 01:02:31;;;;;;;11.15;3.45;;;;;;;-1.85;100.00;60613.78;5075429;28;20435;-76
2022/01/19 01:05:03;;;;;;;9.70;3.77;;;;;;;-1.85;100.00;60614.31;5075239;28;20628;-76
2022/01/19 01:07:33;;;;;;;10.52;3.80;;;;;;;-1.84;100.00;60617.88;5074565;28;20435;-76
2022/01/19 01:10:00;;;;;;;13.07;3.90;;;;;;;-1.73;100.00;60623.97;5075846;28;20291;-74
2022/01/19 01:12:45;;;;;;;9.82;3.45;;;;;;;-1.90;100.00;60610.97;5075066;28;20197;-73
2022/01/19 01:15:30;;;;;;;12.87;3.90;;;;;;;-2.28;100.00;60565.84;5075029;28;20220;-74
2022/01/19 01:18:23;;;;;;;6.77;3.57;;;;;;;-1.91;100.00;60604.94;5075605;28;20442;-76
2022/01/19 01:20:54;;;;;;;8.77;3.57;;;;;;;-2.04;100.00;60591.72;5074938;28;20548;-75
2022/01/19 01:23:27;;;;;;;9.67;3.80;;;;;;;-1.98;100.00;60608.06;5075357;28;20438;-73
2022/01/19 01:26:04;;;;;;;10.90;4.20;;;;;;;-1.89;100.00;60617.56;5075228;28;20534;-74
2022/01/19 01:28:33;;;;;;;11.50;3.93;;;;;;;-2.04;100.00;60594.22;5075352;28;20500;-73
2022/01/19 01:31:03;;;;;;;6.83;3.17;;;;;;;-2.39;100.00;60557.22;5073711;28;20446;-76
2022/01/19 01:33:31;;;;;;;7.30;3.87;;;;;;;-1.96;100.00;60599.66;5074782;28;20533;-75
2022/01/19 01:36:01;;;;;;;13.50;4.87;;;;;;;-3.07;100.00;60488.44;5072907;28;20500;-74
2022/01/19 01:38:34;;;;;;;8.10;3.70;;;;;;;-1.96;100.00;60604.63;5074606;28;20442;-73
2022/01/19 01:41:02;;;;;;;7.20;3.47;;;;;;;-1.91;100.00;60610.44;5074980;28;20464;-76
2022/01/19 01:43:31;;;;;;;9.53;3.30;;;;;;;-3.35;100.00;60458.88;5073360;28;20443;-76
2022/01/19 01:46:04;;;;;;;9.33;3.90;;;;;;;-3.32;100.00;60459.56;5073136;28;20538;-75
2022/01/19 01:48:41;;;;;;;10.13;3.23;;;;;;;-2.05;100.00;60592.66;5074040;28;20580;-75
2022/01/19 01:53:54;;;;;;;8.40;3.97;;;;;;;-3.25;100.00;60469.44;5074336;28;21023;-73
2022/01/19 01:56:22;;;;;;;7.93;3.60;;;;;;;-1.93;100.00;60607.81;5074075;28;20494;-75
2022/01/19 01:58:54;;;;;;;10.23;4.40;;;;;;;-1.92;100.00;60608.88;5074006;28;20457;-76
2022/01/19 02:01:22;;;;;;;9.70;3.90;;;;;;;-1.85;100.00;60613.78;5074628;28;20443;-77
2022/01/19 02:03:50;;;;;;;12.53;3.80;;;;;;;-1.75;100.00;60629.34;5074294;28;20466;-75
2022/01/19 02:09:11;;;;;;;11.27;3.30;;;;;;;-2.58;100.00;60534.66;5074223;28;20503;-74
2022/01/19 02:23:18;;;;;;;10.30;4.00;;;;;;;-1.83;100.00;60620.88;5073456;28;20480;-76
2022/01/19 02:25:47;;;;;;;8.97;3.23;;;;;;;-3.08;100.00;60487.38;5073502;28;20844;-76
2022/01/19 02:36:52;;;;;;;6.30;3.30;;;;;;;-1.91;100.00;60609.94;5016244;28;20492;-74
2022/01/19 02:42:05;;;;;;;11.33;3.97;;;;;;;-2.65;100.00;60532.78;5073184;28;20940;-77
2022/01/19 02:46:38;;;;;;;10.57;4.13;;;;;;;-1.91;100.00;60609.94;5073221;28;20949;-73
2022/01/19 02:50:20;;;;;;;8.50;3.70;;;;;;;-3.06;100.00;60489.50;5073596;28;20433;-75
2022/01/19 02:52:52;;;;;;;9.30;3.50;;;;;;;-1.99;100.00;60599.00;5072866;28;20888;-76
2022/01/19 02:55:23;;;;;;;9.50;3.93;;;;;;;-3.49;100.00;60436.63;5072577;28;20536;-74
2022/01/19 02:57:50;;;;;;;8.97;3.50;;;;;;;-2.51;100.00;60546.53;5073452;28;21067;-74
2022/01/19 03:08:57;;;;;;;10.23;3.13;;;;;;;-2.45;100.00;60552.88;5073283;28;20979;-75
2022/01/19 03:11:27;;;;;;;8.03;3.20;;;;;;;-3.26;100.00;60468.38;5072771;28;20482;-76
2022/01/19 03:14:04;;;;;;;6.50;3.13;;;;;;;-2.02;100.00;60598.28;5072490;28;20451;-75
2022/01/19 03:16:31;;;;;;;12.35;3.85;;;;;;;-2.01;100.00;60589.38;5072654;28;20566;-75
2022/01/19 03:19:02;;;;;;;7.70;3.35;;;;;;;-2.12;100.00;60587.72;5072644;28;20254;-76
2022/01/19 03:21:30;;;;;;;9.23;3.40;;;;;;;-2.15;100.00;60585.09;5072883;28;20219;-74
2022/01/19 03:24:03;;;;;;;8.30;3.60;;;;;;;-3.42;100.00;60456.47;5073771;28;20521;-76
2022/01/19 03:26:30;;;;;;;5.00;3.20;;;;;;;-2.04;100.00;60594.22;5071941;28;20528;-75
2022/01/19 03:29:06;;;;;;;9.60;3.70;;;;;;;-3.59;100.00;60434.06;5072242;28;20903;-74
2022/01/19 03:31:35;;;;;;;14.20;3.50;;;;;;;-3.14;100.00;60481.06;5073985;28;20438;-75
2022/01/19 03:34:07;;;;;;;11.53;4.07;;;;;;;-2.03;100.00;60597.25;5072250;28;20962;-75
2022/01/19 03:36:34;;;;;;;18.63;4.00;;;;;;;-3.29;100.00;60465.19;5072343;28;20518;-76
2022/01/19 03:39:04;;;;;;;6.45;3.28;;;;;;;-1.99;100.00;60602.00;5072501;28;20447;-75
2022/01/19 03:41:32;;;;;;;8.43;3.53;;;;;;;-1.98;100.00;60600.03;5072594;28;20196;-74
2022/01/19 03:44:03;;;;;;;7.37;3.37;;;;;;;-3.02;100.00;60491.22;5071978;28;20431;-76
2022/01/19 03:46:34;;;;;;;16.03;4.07;;;;;;;-2.07;100.00;60590.53;5072223;28;20451;-77
2022/01/19 03:49:12;;;;;;;7.63;3.80;;;;;;;-3.38;100.00;60460.69;5072106;28;20430;-76
2022/01/19 03:54:25;;;;;;;10.93;3.53;;;;;;;-1.92;100.00;60608.88;5072251;28;20465;-75
2022/01/19 03:56:54;;;;;;;6.60;3.13;;;;;;;-2.28;100.00;60570.81;5071840;28;21070;-76
2022/01/19 03:59:22;;;;;;;8.20;3.30;;;;;;;-1.92;100.00;60606.38;5072228;28;20438;-76
2022/01/19 04:01:59;;;;;;;8.23;3.30;;;;;;;-2.97;100.00;60494.00;5071860;28;20454;-75
2022/01/19 04:04:43;;;;;;;9.07;3.90;;;;;;;-2.35;100.00;60563.44;5072257;28;20492;-76
2022/01/19 04:07:10;;;;;;;16.67;3.90;;;;;;;-1.83;100.00;60618.41;5071907;28;20200;-75
2022/01/19 04:09:41;;;;;;;10.83;3.67;;;;;;;-2.45;100.00;60558.38;5071647;28;20977;-76
2022/01/19 04:12:13;;;;;;;10.93;4.33;;;;;;;-1.91;100.00;60609.94;5071974;28;20442;-76
2022/01/19 04:14:42;;;;;;;11.80;3.87;;;;;;;-3.29;100.00;60460.22;5071943;28;20439;-75
2022/01/19 04:17:14;;;;;;;8.63;4.03;;;;;;;-1.71;100.00;60631.59;5072619;28;20557;-74
2022/01/19 04:19:44;;;;;;;12.13;3.67;;;;;;;-1.86;100.00;60615.22;5072106;28;20859;-75
2022/01/19 04:22:18;;;;;;;8.70;3.63;;;;;;;-1.80;100.00;60616.56;5071969;28;20218;-74
2022/01/19 04:24:48;;;;;;;11.80;3.97;;;;;;;-1.92;100.00;60608.88;5070614;28;20487;-75
2022/01/19 04:27:34;;;;;;;7.40;3.60;;;;;;;-1.84;100.00;60622.31;5071729;28;20463;-75
2022/01/19 04:30:09;;;;;;;8.20;4.23;;;;;;;-1.72;100.00;60627.53;5072080;28;20445;-74
2022/01/19 04:32:45;;;;;;;9.83;3.80;;;;;;;-1.96;100.00;60604.63;5070522;28;20453;-75
2022/01/19 04:35:18;;;;;;;9.17;4.07;;;;;;;-1.86;100.00;60610.22;5071563;28;20438;-75
2022/01/19 04:38:43;;;;;;;9.93;3.67;;;;;;;-3.12;100.00;60478.19;5072163;28;20474;-75
2022/01/19 05:06:09;;;;;;;11.00;4.07;;;;;;;-2.10;100.00;60587.34;5071798;28;20507;-76
2022/01/19 05:08:52;;;;;;;9.20;4.10;;;;;;;-2.09;100.00;60590.91;5071521;28;20456;-76
2022/01/19 05:14:08;;;;;;;11.93;4.60;;;;;;;-1.88;100.00;60610.59;5076722;28;20445;-73
2022/01/19 05:16:36;;;;;;;5.97;3.43;;;;;;;-3.70;100.00;60421.94;5075492;28;20485;-74
2022/01/19 05:19:04;;;;;;;7.38;3.60;;;;;;;-2.16;100.00;60583.50;5075358;28;20442;-75
2022/01/19 05:21:39;;;;;;;8.73;3.63;;;;;;;-2.19;100.00;60575.34;5074812;28;20204;-74
2022/01/19 05:24:07;;;;;;;9.23;4.30;;;;;;;-2.07;100.00;60593.03;5075190;28;20439;-75
2022/01/19 05:26:38;;;;;;;7.60;3.67;;;;;;;-1.96;100.00;60599.66;5074792;28;20504;-76
2022/01/19 05:29:16;;;;;;;6.53;2.83;;;;;;;-2.28;100.00;60570.81;5074635;28;20470;-73
2022/01/19 05:31:59;;;;;;;13.73;4.25;;;;;;;-2.09;100.00;60585.91;5075216;28;20482;-73
2022/01/19 05:34:27;;;;;;;10.53;4.57;;;;;;;-2.03;100.00;60587.78;5074604;28;20283;-76
2022/01/19 05:37:00;;;;;;;9.13;4.20;;;;;;;-2.05;100.00;60592.66;5074053;28;20493;-77
2022/01/19 05:39:27;;;;;;;9.70;4.77;;;;;;;-3.24;100.00;60464.97;5074976;28;20837;-76
2022/01/19 05:41:54;;;;;;;7.68;4.15;;;;;;;-2.14;100.00;60585.63;5074552;28;20439;-77
2022/01/19 05:44:30;;;;;;;9.80;4.57;;;;;;;-1.98;100.00;60602.53;5074141;28;20200;-78
2022/01/19 05:47:05;;;;;;;11.23;5.07;;;;;;;-3.71;100.00;60420.88;5074279;28;20438;-74
2022/01/19 05:49:33;;;;;;;8.60;4.37;;;;;;;-1.89;100.00;60622.03;5074508;28;20516;-73
2022/01/19 05:52:08;;;;;;;9.90;4.20;;;;;;;-2.12;100.00;60583.28;5074183;28;20563;-75
2022/01/19 05:54:35;;;;;;;8.77;4.83;;;;;;;-2.28;100.00;60565.84;5074414;28;20430;-73
2022/01/19 05:57:03;;;;;;;13.57;5.00;;;;;;;-1.96;100.00;60602.16;5075045;28;20490;-73
2022/01/19 05:59:38;;;;;;;9.43;4.43;;;;;;;-1.91;100.00;60610.44;5074474;28;20812;-74
2022/01/19 06:02:05;;;;;;;16.60;5.00;;;;;;;-3.09;100.00;60481.34;5074526;28;20488;-76
2022/01/19 06:04:33;;;;;;;12.43;4.93;;;;;;;-1.81;100.00;60620.50;5073973;28;20470;-76
2022/01/19 06:07:03;;;;;;;13.60;4.70;;;;;;;-1.83;100.00;60618.91;5074027;28;20799;-75
2022/01/19 06:09:48;;;;;;;7.80;4.63;;;;;;;-1.72;100.00;60628.06;5073646;28;20480;-75
2022/01/19 06:12:16;;;;;;;11.77;4.80;;;;;;;-1.93;100.00;60605.31;5074299;28;20525;-74
2022/01/19 06:14:46;;;;;;;10.53;4.73;;;;;;;-1.79;100.00;60622.63;5073711;28;20434;-74
2022/01/19 06:17:16;;;;;;;15.13;5.50;;;;;;;-1.95;100.00;60603.22;5072407;28;20483;-76
2022/01/19 06:19:52;;;;;;;10.50;4.40;;;;;;;-2.55;100.00;60537.81;5073831;28;20480;-75
2022/01/19 06:22:21;;;;;;;7.13;4.27;;;;;;;-0.74;100.00;60727.66;5074056;28;20908;-75
2022/01/19 06:24:49;;;;;;;12.43;4.57;;;;;;;-3.37;100.00;60456.22;5074585;28;20446;-74
2022/01/19 06:27:17;;;;;;;12.13;4.70;;;;;;;0.24;100.00;60831.44;5073940;28;20877;-75
2022/01/19 06:29:50;;;;;;;14.57;4.93;;;;;;;0.51;100.00;60860.03;5073031;28;20538;-75
2022/01/19 06:32:22;;;;;;;9.17;4.33;;;;;;;0.53;100.00;60867.19;5073368;28;20883;-75
2022/01/19 06:34:50;;;;;;;15.50;4.23;;;;;;;0.22;100.00;60834.34;5073725;28;20499;-76
2022/01/19 06:37:18;;;;;;;17.83;5.57;;;;;;;-0.35;100.00;60773.94;5072791;28;20593;-74
2022/01/19 06:39:45;;;;;;;16.90;6.33;;;;;;;-0.61;100.00;60743.91;5073307;28;20521;-73
2022/01/19 06:42:11;;;;;;;12.80;4.77;;;;;;;-1.57;100.00;60648.38;5073501;28;20435;-76
2022/01/19 06:44:39;;;;;;;12.57;5.20;;;;;;;-0.97;100.00;60708.84;5073412;28;20434;-75
2022/01/19 06:47:18;;;;;;;8.97;4.83;;;;;;;-0.96;100.00;60705.41;5073396;28;20431;-75
2022/01/19 06:49:45;;;;;;;10.53;4.83;;;;;;;-0.73;100.00;60733.69;5073559;28;20439;-75
2022/01/19 06:52:14;;;;;;;12.77;6.20;;;;;;;-0.02;100.00;60806.41;5073121;28;20463;-74
2022/01/19 06:54:42;;;;;;;10.67;4.97;;;;;;;1.03;100.00;60919.66;5073173;28;20442;-75
2022/01/19 06:57:19;;;;;;;11.57;5.33;;;;;;;0.61;100.00;60875.66;5071839;28;20493;-73
2022/01/19 06:59:45;;;;;;;13.83;5.97;;;;;;;1.53;100.00;60972.19;5073039;28;20461;-74
2022/01/19 07:02:16;;;;;;;8.63;4.50;;;;;;;2.05;100.00;61022.38;5072885;28;20443;-77
2022/01/19 07:04:49;;;;;;;8.80;4.80;;;;;;;1.99;100.00;61021.00;5072715;28;20434;-73
2022/01/19 07:07:18;;;;;;;12.73;5.40;;;;;;;1.89;100.00;61010.41;5076697;28;20439;-76
2022/01/19 07:09:49;;;;;;;11.03;5.57;;;;;;;1.96;100.00;61015.31;5077607;28;20439;-74
2022/01/19 07:12:17;;;;;;;10.00;4.60;;;;;;;0.46;100.00;60857.25;5072323;28;20532;-74
2022/01/19 07:14:45;;;;;;;10.77;5.53;;;;;;;1.90;100.00;61011.44;5071699;28;20575;-76
2022/01/19 07:17:19;;;;;;;14.03;5.73;;;;;;;1.89;100.00;61002.88;5071552;28;20481;-75
2022/01/19 07:19:52;;;;;;;13.00;6.13;;;;;;;1.24;100.00;60936.94;5071966;28;20504;-74
2022/01/19 07:22:19;;;;;;;17.90;6.60;;;;;;;2.00;100.00;61017.03;5072836;28;20438;-74
2022/01/19 07:24:46;;;;;;;12.43;6.50;;;;;;;1.01;100.00;60917.03;5078211;28;20512;-76
2022/01/19 07:27:16;;;;;;;15.83;6.47;;;;;;;2.42;100.00;61061.66;5072782;28;20438;-75
2022/01/19 07:29:43;;;;;;;14.13;5.40;;;;;;;1.51;100.00;60968.06;5072868;28;20789;-75
2022/01/19 07:32:12;;;;;;;16.77;6.87;;;;;;;1.68;100.00;60988.63;5072587;28;20968;-76
2022/01/19 07:34:42;;;;;;;15.57;6.53;;;;;;;1.16;100.00;60923.44;5071049;28;20542;-74
2022/01/19 07:37:16;;;;;;;13.33;6.20;;;;;;;0.67;100.00;60877.00;5073124;28;20541;-76
2022/01/19 07:39:57;;;;;;;11.63;6.53;;;;;;;1.90;100.00;61006.44;5072201;28;20450;-76
2022/01/19 07:42:32;;;;;;;13.33;6.37;;;;;;;1.95;100.00;61016.78;5072483;28;20492;-75
2022/01/19 07:45:01;;;;;;;25.77;7.80;;;;;;;1.75;100.00;61000.03;5072683;28;20434;-75
2022/01/19 07:47:39;;;;;;;19.13;7.43;;;;;;;2.35;100.00;61049.19;5073301;28;20446;-75
2022/01/19 07:50:11;;;;;;;12.83;5.60;;;;;;;1.61;100.00;60978.69;5074672;28;20438;-76
2022/01/19 07:52:40;;;;;;;13.50;6.60;;;;;;;1.43;100.00;60959.06;5073859;28;20504;-74
2022/01/19 07:55:09;;;;;;;14.17;4.53;;;;;;;2.12;100.00;61034.81;5072678;28;20945;-74
2022/01/19 07:57:37;;;;;;;21.90;7.50;;;;;;;1.63;100.00;60987.81;5072763;28;21000;-75
2022/01/19 08:00:14;;;;;;;19.60;8.20;;;;;;;1.54;100.00;60973.78;5072802;28;20449;-74
2022/01/19 08:02:44;;;;;;;13.03;6.07;;;;;;;1.37;100.00;60955.22;5072316;28;20438;-75
2022/01/19 08:05:16;;;;;;;16.53;5.87;;;;;;;1.24;100.00;60936.38;5071725;28;20957;-74
2022/01/19 08:07:43;;;;;;;11.23;5.17;;;;;;;1.96;100.00;61017.81;5072303;28;20427;-75
2022/01/19 08:10:13;;;;;;;10.73;5.20;;;;;;;0.88;100.00;60898.75;5072546;28;20933;-72
2022/01/19 08:12:43;;;;;;;16.77;5.53;;;;;;;1.66;100.00;60984.00;5072864;28;20443;-74
2022/01/19 08:15:13;;;;;;;17.10;5.27;;;;;;;1.71;100.00;60991.28;5072297;28;20450;-75
2022/01/19 08:17:42;;;;;;;13.23;5.63;;;;;;;1.40;100.00;60953.91;5071705;28;20526;-76
2022/01/19 08:20:11;;;;;;;13.07;5.83;;;;;;;-0.07;100.00;60798.59;5071882;28;20496;-74
2022/01/19 08:22:40;;;;;;;11.33;5.00;;;;;;;0.30;100.00;60837.78;5071628;28;20887;-73
2022/01/19 08:25:12;;;;;;;12.63;5.87;;;;;;;0.85;100.00;60895.56;5071644;28;20825;-75
2022/01/19 08:27:40;;;;;;;17.20;6.33;;;;;;;1.49;100.00;60963.44;5072233;28;20469;-75
2022/01/19 08:30:12;;;;;;;16.07;5.87;;;;;;;1.63;100.00;60972.75;5070815;28;20445;-75
2022/01/19 08:32:39;;;;;;;12.30;4.77;;;;;;;1.51;100.00;60968.06;5072122;28;20438;-74
2022/01/19 08:35:09;;;;;;;13.70;5.90;;;;;;;1.55;100.00;60971.81;5071909;28;20937;-75
2022/01/19 08:37:41;;;;;;;15.50;6.63;;;;;;;1.07;100.00;60923.38;5070981;28;20921;-74
2022/01/19 08:40:10;;;;;;;35.77;12.00;;;;;;;0.79;100.00;60894.75;5071518;28;20817;-76
2022/01/19 08:42:37;;;;;;;19.33;7.63;;;;;;;-0.23;100.00;60796.66;5071502;28;20956;-73
2022/01/19 08:45:07;;;;;;;20.93;7.10;;;;;;;0.77;100.00;60895.13;5071297;28;20887;-76
2022/01/19 08:50:18;;;;;;;18.77;5.90;;;;;;;1.53;100.00;60972.19;5072179;28;20869;-74
2022/01/19 08:52:50;;;;;;;8.50;4.93;;;;;;;1.22;100.00;60937.31;5072836;28;20488;-76
2022/01/19 08:55:22;;;;;;;9.07;4.53;;;;;;;0.93;100.00;60903.53;5075167;28;20830;-75
2022/01/19 08:57:50;;;;;;;12.70;5.00;;;;;;;1.05;100.00;60923.78;5073958;28;20481;-73
2022/01/19 09:00:24;;;;;;;12.83;4.90;;;;;;;1.25;100.00;60942.47;5075319;28;20467;-75
2022/01/19 09:03:18;;;;;;;9.83;5.20;;;;;;;1.22;100.00;60934.28;5075132;28;20434;-75
2022/01/19 09:05:51;;;;;;;10.37;4.73;;;;;;;-0.09;100.00;60796.47;5075415;28;20817;-74
2022/01/19 09:08:25;;;;;;;9.13;4.40;;;;;;;-0.22;100.00;60787.72;5073800;28;20438;-75
2022/01/19 09:10:58;;;;;;;9.70;4.90;;;;;;;1.41;100.00;60959.47;5074748;28;20485;-75
2022/01/19 09:13:25;;;;;;;10.90;4.93;;;;;;;0.16;100.00;60832.97;5074742;28;20541;-75
2022/01/19 09:15:54;;;;;;;8.80;4.20;;;;;;;1.31;100.00;60948.84;5074672;28;20933;-76
2022/01/19 09:18:30;;;;;;;14.37;4.60;;;;;;;1.65;100.00;60984.94;5074398;28;20494;-76
2022/01/19 09:20:58;;;;;;;14.17;5.40;;;;;;;1.69;100.00;60986.66;5074743;28;20488;-74
2022/01/19 09:23:30;;;;;;;16.23;5.90;;;;;;;1.77;100.00;60992.63;5074518;28;20450;-75
2022/01/19 09:25:58;;;;;;;12.53;5.13;;;;;;;0.88;100.00;60903.75;5074879;28;20550;-77
2022/01/19 09:28:31;;;;;;;11.70;5.10;;;;;;;1.81;100.00;61001.38;5074447;28;20450;-74
2022/01/19 09:31:04;;;;;;;13.93;5.47;;;;;;;1.75;100.00;60995.53;5075388;28;20462;-76
2022/01/19 09:33:38;;;;;;;12.90;5.60;;;;;;;1.90;100.00;61008.94;5076378;28;20450;-76
2022/01/19 09:36:30;;;;;;;12.73;5.50;;;;;;;1.08;100.00;60921.94;5074670;28;20466;-74
2022/01/19 09:39:01;;;;;;;14.37;5.20;;;;;;;2.17;100.00;61035.09;5074382;28;20486;-74
2022/01/19 09:41:30;;;;;;;12.57;5.93;;;;;;;2.08;100.00;61027.50;5074807;28;20435;-73
2022/01/19 09:43:59;;;;;;;17.57;6.20;;;;;;;1.53;100.00;60972.69;5075061;28;20431;-75
2022/01/19 09:46:27;;;;;;;13.17;5.80;;;;;;;1.38;100.00;60956.25;5074998;28;20443;-74
2022/01/19 09:48:54;;;;;;;13.37;5.90;;;;;;;2.30;100.00;61053.94;5073792;28;20482;-77
2022/01/19 09:51:22;;;;;;;10.93;5.20;;;;;;;2.13;100.00;61038.41;5073419;28;20898;-77
2022/01/19 09:53:50;;;;;;;11.33;4.77;;;;;;;2.18;100.00;61041.19;5074274;28;20797;-75
2022/01/19 09:56:25;;;;;;;17.77;5.80;;;;;;;2.36;100.00;61055.28;5074133;28;20441;-76
2022/01/19 09:58:54;;;;;;;17.03;5.40;;;;;;;1.18;100.00;60932.53;5074038;28;20551;-75
2022/01/19 10:01:28;;;;;;;14.63;5.77;;;;;;;2.21;100.00;61049.41;5073889;28;20512;-75
2022/01/19 10:03:59;;;;;;;10.07;5.50;;;;;;;2.40;100.00;61062.03;5072707;28;21018;-73
2022/01/19 10:06:29;;;;;;;12.67;4.90;;;;;;;2.29;100.00;61052.88;5073731;28;20496;-75
2022/01/19 10:09:04;;;;;;;13.17;5.27;;;;;;;2.50;100.00;61075.16;5073873;28;20853;-75
2022/01/19 10:17:06;;;;;;;10.10;5.40;;;;;;;2.64;100.00;61083.97;5073750;28;20484;-75
2022/01/19 10:19:45;;;;;;;14.30;5.20;;;;;;;2.71;100.00;61091.38;5074176;28;20473;-75
2022/01/19 10:22:14;;;;;;;11.53;5.90;;;;;;;2.75;100.00;61095.63;5073178;28;20485;-73
2022/01/19 10:24:50;;;;;;;16.90;5.93;;;;;;;1.22;100.00;60934.28;5072236;28;20455;-75
2022/01/19 10:27:30;;;;;;;8.10;4.87;;;;;;;2.87;100.00;61110.91;5073792;28;20446;-74
2022/01/19 10:30:16;;;;;;;13.30;5.17;;;;;;;3.10;100.00;61137.88;5074198;28;20956;-74
2022/01/19 10:32:52;;;;;;;16.13;5.03;;;;;;;3.34;100.00;61163.41;5073283;28;20558;-78
2022/01/19 10:35:38;;;;;;;12.97;5.80;;;;;;;3.10;100.00;61137.88;5072176;28;20442;-74
2022/01/19 10:38:19;;;;;;;11.17;4.90;;;;;;;2.88;100.00;61114.50;5073066;28;20486;-77
2022/01/19 10:41:10;;;;;;;13.83;5.53;;;;;;;4.15;100.00;61244.50;5072801;28;20461;-77
2022/01/19 10:43:42;;;;;;;13.03;6.07;;;;;;;4.22;100.00;61259.53;5073062;28;20535;-75
2022/01/19 10:46:34;;;;;;;9.73;5.17;;;;;;;5.66;100.00;61409.31;5073275;28;20443;-74
2022/01/19 10:49:09;;;;;;;10.63;5.07;;;;;;;5.58;100.00;61398.25;5072342;28;20522;-76
2022/01/19 10:51:45;;;;;;;13.10;6.00;;;;;;;6.03;100.00;61442.66;5073134;28;20481;-77
2022/01/19 10:54:16;;;;;;;13.80;6.30;;;;;;;6.93;100.00;61538.66;5072762;28;20554;-77
2022/01/19 10:56:52;;;;;;;17.13;5.17;;;;;;;5.55;100.00;61392.53;5072927;28;20439;-76
2022/01/19 10:59:29;;;;;;;13.60;5.77;;;;;;;7.55;100.00;61607.38;5072813;28;20489;-76
2022/01/19 11:02:06;;;;;;;10.60;4.93;;;;;;;8.35;100.00;61689.28;5072351;28;20454;-74
2022/01/19 11:04:42;;;;;;;11.50;5.87;;;;;;;7.89;100.00;61642.63;5073377;28;20431;-78
2022/01/19 11:07:19;;;;;;;9.70;4.87;;;;;;;9.48;100.00;61809.03;5072741;28;20492;-77
2022/01/19 11:09:57;;;;;;;15.70;6.23;;;;;;;9.47;100.00;61811.03;5073130;28;20449;-75
2022/01/19 11:12:30;;;;;;;15.83;5.87;;;;;;;8.79;100.00;61738.31;5072535;28;20442;-78
2022/01/19 11:15:08;;;;;;;11.60;6.27;;;;;;;10.32;95.50;61898.97;5072401;28;20913;-76
2022/01/19 11:17:37;;;;;;;12.80;5.80;;;;;;;10.92;86.86;61965.81;5072553;28;20469;-75
2022/01/19 11:20:23;;;;;;;12.37;5.70;;;;;;;9.74;81.50;61839.94;5071968;28;20941;-77
2022/01/19 11:23:13;;;;;;;15.37;6.20;;;;;;;10.43;78.66;61915.84;5072276;28;20500;-76
2022/01/19 11:25:53;;;;;;;14.93;6.30;;;;;;;10.63;76.66;61934.19;5072656;28;20442;-76
2022/01/19 11:28:34;;;;;;;12.03;5.37;;;;;;;10.43;77.55;61910.75;5072639;28;20454;-76
2022/01/19 11:31:13;;;;;;;17.57;5.70;;;;;;;10.31;76.21;61900.44;5072434;28;20557;-77
2022/01/19 11:33:47;;;;;;;15.67;7.87;;;;;;;10.40;78.55;61912.63;5072234;28;20465;-75
2022/01/19 11:36:31;;;;;;;15.43;6.37;;;;;;;9.41;77.78;61796.47;5075813;28;20462;-74
2022/01/19 11:39:11;;;;;;;9.43;5.27;;;;;;;10.41;77.53;61908.59;5075046;28;20921;-76
2022/01/19 11:41:54;;;;;;;13.03;6.17;;;;;;;11.04;75.12;61978.66;5072940;28;20845;-77
2022/01/19 11:44:43;;;;;;;14.23;6.57;;;;;;;10.42;73.01;61909.69;5072559;28;20466;-77
2022/01/19 11:47:33;;;;;;;15.87;6.63;;;;;;;11.31;70.52;62009.09;5072293;28;20497;-76
2022/01/19 11:53:12;;;;;;;11.23;5.23;;;;;;;11.18;67.86;61990.03;5073032;28;20606;-76
2022/01/19 11:56:06;;;;;;;12.03;6.87;;;;;;;11.32;70.16;62005.03;5072677;28;20203;-78
2022/01/19 11:58:35;;;;;;;16.67;7.27;;;;;;;11.10;68.70;61986.56;5072461;28;20223;-75
2022/01/19 12:01:22;;;;;;;16.70;7.67;;;;;;;11.95;64.34;62072.63;5072162;28;20593;-74
2022/01/19 12:04:16;;;;;;;15.53;7.10;;;;;;;12.30;64.02;62110.16;5072594;28;20204;-78
2022/01/19 12:06:59;;;;;;;21.23;9.63;;;;;;;12.71;62.45;62159.28;5072517;28;20208;-76
2022/01/19 12:21:13;;;;;;;19.70;6.60;;;;;;;13.03;57.35;62187.47;5071739;28;20208;-75
2022/01/19 12:23:42;;;;;;;16.23;7.23;;;;;;;13.26;57.23;62212.19;5071512;28;20246;-76
2022/01/19 12:26:19;;;;;;;12.70;6.23;;;;;;;13.50;55.53;62238.50;5071736;28;20200;-76
2022/01/19 12:28:50;;;;;;;11.63;4.90;;;;;;;13.73;54.83;62267.78;5075530;28;20730;-76
2022/01/19 12:31:36;;;;;;;16.23;6.57;;;;;;;13.91;54.34;62287.13;5075960;28;20226;-74
2022/01/19 12:34:26;;;;;;;15.57;6.07;;;;;;;13.86;52.84;62276.66;5075977;28;20200;-76
2022/01/19 12:37:02;;;;;;;13.23;6.03;;;;;;;13.47;52.11;62237.84;5075410;28;20330;-75
2022/01/19 12:39:43;;;;;;;11.83;7.13;;;;;;;13.38;51.89;62225.06;5077677;28;20322;-75
2022/01/19 12:42:22;;;;;;;16.27;7.23;;;;;;;14.16;52.40;62310.91;5078704;28;20207;-76
2022/01/19 12:44:53;;;;;;;15.07;6.57;;;;;;;12.73;51.73;62160.91;5078080;28;20286;-77
2022/01/19 12:50:49;;;;;;;18.40;9.80;;;;;;;13.91;49.83;62287.13;5013325;28;20202;-78
2022/01/19 12:53:23;;;;;;;14.97;6.93;;;;;;;15.14;49.02;62413.22;5073687;28;20339;-75
2022/01/19 12:55:56;;;;;;;14.57;6.47;;;;;;;14.22;48.20;62320.47;5075946;28;20212;-75
2022/01/19 12:58:33;;;;;;;12.37;5.87;;;;;;;14.44;47.35;62340.50;5074250;28;20310;-76
2022/01/19 13:01:08;;;;;;;13.80;7.97;;;;;;;15.06;46.58;62407.19;5074954;28;20640;-76
2022/01/19 13:03:40;;;;;;;12.77;7.23;;;;;;;15.22;46.19;62419.28;5074906;28;20325;-78
2022/01/19 13:06:14;;;;;;;12.03;6.63;;;;;;;15.67;46.41;62472.88;5075357;28;20587;-74
2022/01/19 13:11:56;;;;;;;13.93;7.73;;;;;;;14.76;46.28;62378.03;5075072;28;20200;-77
2022/01/19 13:14:27;;;;;;;12.63;6.93;;;;;;;15.70;45.60;62470.94;5075577;28;20198;-78
2022/01/19 13:17:03;;;;;;;14.67;6.53;;;;;;;15.36;46.62;62436.91;5075151;28;20257;-75
2022/01/19 13:19:35;;;;;;;12.50;6.17;;;;;;;15.32;46.75;62432.59;5075115;28;20728;-75
2022/01/19 13:22:07;;;;;;;13.73;6.70;;;;;;;16.11;45.43;62519.16;5074859;28;20222;-76
2022/01/19 13:24:42;;;;;;;22.23;7.70;;;;;;;15.80;44.00;62486.84;5073727;28;20205;-76
2022/01/19 13:27:10;;;;;;;13.53;6.77;;;;;;;16.36;43.94;62548.69;5074896;28;20196;-76
2022/01/19 13:29:39;;;;;;;15.60;8.13;;;;;;;16.92;43.15;62603.34;5074735;28;20204;-77
2022/01/19 13:32:19;;;;;;;22.50;9.93;;;;;;;15.47;42.22;62451.34;5074559;28;20286;-75